createdAt,value
2019-04-14T00:02:38.222Z,4.06
2019-04-14T00:05:10.392Z,4.04
2019-04-14T00:07:40.572Z,3.95
2019-04-14T00:10:11.546Z,3.94
2019-04-14T00:12:42.618Z,3.95
2019-04-14T00:15:25.718Z,3.87
2019-04-14T00:17:45.632Z,3.76
2019-04-14T00:20:16.407Z,3.77
2019-04-14T00:22:46.819Z,3.86
2019-04-14T00:25:17.410Z,3.96
2019-04-14T00:27:48.077Z,4.03
2019-04-14T00:30:18.875Z,4.08
2019-04-14T00:32:50.920Z,4.12
2019-04-14T00:35:23.090Z,4.16
2019-04-14T00:37:55.478Z,4.19
2019-04-14T00:40:34.674Z,4.13
2019-04-14T00:43:07.011Z,4.10
2019-04-14T00:45:46.469Z,4.13
2019-04-14T00:48:16.158Z,4.18
2019-04-14T00:50:43.476Z,4.24
2019-04-14T00:53:14.255Z,4.31
2019-04-14T00:55:44.353Z,4.38
2019-04-14T00:58:14.849Z,4.43
2019-04-14T01:00:45.124Z,4.47
2019-04-14T01:03:15.538Z,4.53
2019-04-14T01:05:45.939Z,4.56
2019-04-14T01:08:16.347Z,4.59
2019-04-14T01:10:46.024Z,4.65
2019-04-14T01:13:15.810Z,4.69
2019-04-14T01:15:56.816Z,4.71
2019-04-14T01:18:16.909Z,4.73
2019-04-14T01:20:47.096Z,4.74
2019-04-14T01:23:17.162Z,4.76
2019-04-14T01:25:47.702Z,4.77
2019-04-14T01:28:17.967Z,4.77
2019-04-14T01:30:49.035Z,4.78
2019-04-14T01:33:20.565Z,4.79
2019-04-14T01:35:50.990Z,4.79
2019-04-14T01:38:21.198Z,4.78
2019-04-14T01:40:51.046Z,4.73
2019-04-14T01:43:21.360Z,4.74
2019-04-14T01:46:03.980Z,4.73
2019-04-14T01:48:23.504Z,4.72
2019-04-14T01:50:58.391Z,4.68
2019-04-14T01:53:35.767Z,4.68
2019-04-14T01:56:07.999Z,4.63
2019-04-14T01:58:45.262Z,4.55
2019-04-14T02:01:17.064Z,4.54
2019-04-14T02:03:47.751Z,4.50
2019-04-14T02:06:17.967Z,4.50
2019-04-14T02:08:48.025Z,4.51
2019-04-14T02:11:20.457Z,4.56
2019-04-14T02:13:50.827Z,4.59
2019-04-14T02:16:30.289Z,4.64
2019-04-14T02:18:53.547Z,4.71
2019-04-14T02:21:23.723Z,4.73
2019-04-14T02:23:54.014Z,4.76
2019-04-14T02:26:24.080Z,4.78
2019-04-14T02:28:54.904Z,4.78
2019-04-14T02:31:48.495Z,4.79
2019-04-14T02:34:28.403Z,4.78
2019-04-14T02:36:57.114Z,4.76
2019-04-14T02:44:30.609Z,4.75
2019-04-14T02:52:04.764Z,4.70
2019-04-14T02:54:45.247Z,4.71
2019-04-14T02:57:12.553Z,4.70
2019-04-14T02:59:36.475Z,4.71
2019-04-14T03:02:23.233Z,4.73
2019-04-14T03:07:14.400Z,4.72
2019-04-14T03:09:45.445Z,4.70
2019-04-14T03:12:16.894Z,4.70
2019-04-14T03:14:47.861Z,4.69
2019-04-14T03:20:08.510Z,4.66
2019-04-14T03:24:50.275Z,4.64
2019-04-14T03:27:45.877Z,4.63
2019-04-14T03:30:39.296Z,4.62
2019-04-14T03:33:13.673Z,4.60
2019-04-14T03:35:35.741Z,4.58
2019-04-14T03:37:59.432Z,4.59
2019-04-14T03:40:21.668Z,4.61
2019-04-14T03:45:28.130Z,4.56
2019-04-14T03:48:01.490Z,4.42
2019-04-14T03:50:21.549Z,4.29
2019-04-14T03:53:03.255Z,4.16
2019-04-14T03:55:12.756Z,4.00
2019-04-14T03:57:31.206Z,3.84
2019-04-14T04:00:01.305Z,3.77
2019-04-14T04:02:31.535Z,3.73
2019-04-14T04:05:02.217Z,3.67
2019-04-14T04:07:32.274Z,3.72
2019-04-14T04:10:03.638Z,3.70
2019-04-14T04:12:33.604Z,3.73
2019-04-14T04:15:03.968Z,3.73
2019-04-14T04:17:36.280Z,3.75
2019-04-14T04:20:09.022Z,3.78
2019-04-14T04:22:43.435Z,3.73
2019-04-14T04:25:27.269Z,3.70
2019-04-14T04:28:03.969Z,3.74
2019-04-14T04:30:41.261Z,3.78
2019-04-14T04:33:15.530Z,3.86
2019-04-14T04:35:47.897Z,3.94
2019-04-14T04:38:22.420Z,3.99
2019-04-14T04:40:52.893Z,4.05
2019-04-14T04:43:23.330Z,4.08
2019-04-14T04:45:53.806Z,4.13
2019-04-14T04:48:24.185Z,4.19
2019-04-14T04:50:54.215Z,4.25
2019-04-14T04:53:24.488Z,4.30
2019-04-14T04:55:54.639Z,4.34
2019-04-14T04:58:24.392Z,4.39
2019-04-14T05:00:55.893Z,4.46
2019-04-14T05:03:25.469Z,4.51
2019-04-14T05:06:29.440Z,4.57
2019-04-14T05:09:07.929Z,4.64
2019-04-14T05:11:45.258Z,4.71
2019-04-14T05:14:17.307Z,4.77
2019-04-14T05:16:47.001Z,4.82
2019-04-14T05:19:23.614Z,4.87
2019-04-14T05:21:47.966Z,4.90
2019-04-14T05:24:17.932Z,4.95
2019-04-14T05:26:48.472Z,5.00
2019-04-14T05:29:19.014Z,5.06
2019-04-14T05:31:49.047Z,5.10
2019-04-14T05:34:19.440Z,5.12
2019-04-14T05:36:52.063Z,5.17
2019-04-14T05:39:22.076Z,5.20
2019-04-14T05:42:00.333Z,5.23
2019-04-14T05:44:23.876Z,5.27
2019-04-14T05:46:53.567Z,5.30
2019-04-14T05:49:31.506Z,5.35
2019-04-14T05:51:57.508Z,5.38
2019-04-14T05:54:27.507Z,5.42
2019-04-14T05:57:00.107Z,5.44
2019-04-14T05:59:30.791Z,5.46
2019-04-14T06:02:00.425Z,5.47
2019-04-14T06:04:31.012Z,5.49
2019-04-14T06:07:00.743Z,5.53
2019-04-14T06:09:30.533Z,5.55
2019-04-14T06:12:00.637Z,5.59
2019-04-14T06:14:30.460Z,5.65
2019-04-14T06:17:00.073Z,5.68
2019-04-14T06:19:37.180Z,5.70
2019-04-14T06:22:01.052Z,5.69
2019-04-14T06:24:30.664Z,5.70
2019-04-14T06:27:00.292Z,5.71
2019-04-14T06:29:30.155Z,5.75
2019-04-14T06:32:04.148Z,5.78
2019-04-14T06:34:35.472Z,5.81
2019-04-14T06:37:24.576Z,5.81
2019-04-14T06:39:55.841Z,5.83
2019-04-14T06:42:25.460Z,5.84
2019-04-14T06:44:55.123Z,5.84
2019-04-14T06:47:25.624Z,5.83
2019-04-14T06:49:55.811Z,5.83
2019-04-14T06:52:25.500Z,5.85
2019-04-14T06:54:55.884Z,5.84
2019-04-14T06:57:25.580Z,5.87
2019-04-14T06:59:56.136Z,5.87
2019-04-14T07:02:25.746Z,5.89
2019-04-14T07:04:55.369Z,5.89
2019-04-14T07:07:25.390Z,5.92
2019-04-14T07:09:55.013Z,5.95
2019-04-14T07:12:24.631Z,6.00
2019-04-14T07:14:54.565Z,6.05
2019-04-14T07:17:24.191Z,6.08
2019-04-14T07:20:01.855Z,6.12
2019-04-14T07:22:25.423Z,6.13
2019-04-14T07:24:55.103Z,6.16
2019-04-14T07:27:25.196Z,6.21
2019-04-14T07:29:59.206Z,6.25
2019-04-14T07:32:42.497Z,6.30
2019-04-14T07:35:16.732Z,6.32
2019-04-14T07:37:50.951Z,6.34
2019-04-14T07:40:22.215Z,6.37
2019-04-14T07:42:53.541Z,6.38
2019-04-14T07:45:24.799Z,6.39
2019-04-14T07:47:56.252Z,6.40
2019-04-14T07:50:40.675Z,6.42
2019-04-14T07:53:26.959Z,6.43
2019-04-14T07:56:10.226Z,6.42
2019-04-14T07:58:44.532Z,6.44
2019-04-14T08:01:18.560Z,6.42
2019-04-14T08:04:05.691Z,6.47
2019-04-14T08:06:38.267Z,6.53
2019-04-14T08:09:07.593Z,6.56
2019-04-14T08:11:37.777Z,6.59
2019-04-14T08:14:08.301Z,6.60
2019-04-14T08:16:37.917Z,6.63
2019-04-14T08:19:07.812Z,6.64
2019-04-14T08:21:37.575Z,6.68
2019-04-14T08:24:07.627Z,6.70
2019-04-14T08:26:37.245Z,6.72
2019-04-14T08:29:06.901Z,6.73
2019-04-14T08:31:36.569Z,6.77
2019-04-14T08:34:06.151Z,6.84
2019-04-14T08:36:36.484Z,6.88
2019-04-14T08:39:08.060Z,6.91
2019-04-14T08:41:44.168Z,6.92
2019-04-14T08:44:20.877Z,6.94
2019-04-14T08:47:09.218Z,6.98
2019-04-14T08:49:46.087Z,6.99
2019-04-14T08:52:24.221Z,7.01
2019-04-14T08:54:59.469Z,7.05
2019-04-14T08:57:30.796Z,7.09
2019-04-14T09:00:18.311Z,7.11
2019-04-14T09:02:52.731Z,7.13
2019-04-14T09:05:40.341Z,7.14
2019-04-14T09:08:14.439Z,7.15
2019-04-14T09:10:45.705Z,7.16
2019-04-14T09:13:15.692Z,7.19
2019-04-14T09:15:45.507Z,7.20
2019-04-14T09:18:15.118Z,7.21
2019-04-14T09:20:52.109Z,7.25
2019-04-14T09:23:17.502Z,7.28
2019-04-14T09:25:48.901Z,7.32
2019-04-14T09:28:18.608Z,7.34
2019-04-14T09:30:50.110Z,7.36
2019-04-14T09:33:20.094Z,7.38
2019-04-14T09:35:50.103Z,7.41
2019-04-14T09:38:19.754Z,7.45
2019-04-14T09:40:49.938Z,7.45
2019-04-14T09:43:19.553Z,7.44
2019-04-14T09:45:50.746Z,7.45
2019-04-14T09:48:20.354Z,7.44
2019-04-14T09:50:50.044Z,7.45
2019-04-14T09:53:19.755Z,7.45
2019-04-14T09:55:49.450Z,7.48
2019-04-14T09:58:19.065Z,7.49
2019-04-14T10:00:48.778Z,7.51
2019-04-14T10:03:18.429Z,7.56
2019-04-14T10:05:48.015Z,7.59
2019-04-14T10:08:18.150Z,7.63
2019-04-14T10:10:49.147Z,7.68
2019-04-14T10:13:19.139Z,7.74
2019-04-14T10:15:48.794Z,7.80
2019-04-14T10:18:18.428Z,7.84
2019-04-14T10:20:49.765Z,7.86
2019-04-14T10:23:19.562Z,7.90
2019-04-14T10:25:51.471Z,7.94
2019-04-14T10:28:21.343Z,7.95
2019-04-14T10:30:51.746Z,7.97
2019-04-14T10:33:21.684Z,7.98
2019-04-14T10:35:51.335Z,8.02
2019-04-14T10:38:21.338Z,8.04
2019-04-14T10:40:50.968Z,8.04
2019-04-14T10:43:20.592Z,8.07
2019-04-14T10:45:50.296Z,8.10
2019-04-14T10:48:20.049Z,8.13
2019-04-14T10:50:49.933Z,8.13
2019-04-14T10:53:19.583Z,8.14
2019-04-14T10:55:49.199Z,8.14
2019-04-14T10:58:18.819Z,8.18
2019-04-14T11:00:48.846Z,8.21
2019-04-14T11:03:18.452Z,8.26
2019-04-14T11:05:49.708Z,8.28
2019-04-14T11:08:19.364Z,8.32
2019-04-14T11:10:49.490Z,8.36
2019-04-14T11:13:19.103Z,8.38
2019-04-14T11:15:48.756Z,8.44
2019-04-14T11:18:18.368Z,8.46
2019-04-14T11:20:48.724Z,8.51
2019-04-14T11:23:18.410Z,8.54
2019-04-14T11:25:48.415Z,8.59
2019-04-14T11:28:18.030Z,8.65
2019-04-14T11:30:47.760Z,8.72
2019-04-14T11:33:21.973Z,8.79
2019-04-14T11:36:02.485Z,8.86
2019-04-14T11:38:34.014Z,8.94
2019-04-14T11:41:08.073Z,9.01
2019-04-14T11:43:38.091Z,9.08
2019-04-14T11:46:07.817Z,9.14
2019-04-14T11:48:37.512Z,9.20
2019-04-14T11:51:07.155Z,9.31
2019-04-14T11:53:36.788Z,9.38
2019-04-14T11:56:06.470Z,9.47
2019-04-14T11:58:36.366Z,9.56
2019-04-14T12:01:10.646Z,9.67
2019-04-14T12:03:51.158Z,9.82
2019-04-14T12:06:22.547Z,9.97
2019-04-14T12:08:56.531Z,10.15
2019-04-14T12:11:26.239Z,10.40
2019-04-14T12:13:56.747Z,10.70
2019-04-14T12:16:26.376Z,11.19
2019-04-14T12:18:58.450Z,11.79
2019-04-14T12:21:28.078Z,12.29
2019-04-14T12:23:58.043Z,12.68
2019-04-14T12:26:27.686Z,13.05
2019-04-14T12:28:59.176Z,13.52
2019-04-14T12:31:29.186Z,13.76
2019-04-14T12:33:58.868Z,13.90
2019-04-14T12:36:28.867Z,14.23
2019-04-14T12:38:58.525Z,14.58
2019-04-14T12:41:35.677Z,14.88
2019-04-14T12:44:12.678Z,15.05
2019-04-14T12:46:56.034Z,15.23
2019-04-14T12:49:27.306Z,15.56
2019-04-14T12:52:01.626Z,15.60
2019-04-14T12:54:31.299Z,15.53
2019-04-14T12:57:01.112Z,15.53
2019-04-14T12:59:32.858Z,15.81
2019-04-14T13:02:06.646Z,16.12
2019-04-14T13:04:36.289Z,16.61
2019-04-14T13:07:06.175Z,17.25
2019-04-14T13:09:36.501Z,17.53
2019-04-14T13:12:06.363Z,17.68
2019-04-14T13:14:36.005Z,18.09
2019-04-14T13:17:05.742Z,18.35
2019-04-14T13:19:35.358Z,18.54
2019-04-14T13:22:05.061Z,18.93
2019-04-14T13:24:35.555Z,19.43
2019-04-14T13:27:05.647Z,19.72
2019-04-14T13:29:35.274Z,20.17
2019-04-14T13:32:06.180Z,20.57
2019-04-14T13:34:35.809Z,20.99
2019-04-14T13:37:05.640Z,21.17
2019-04-14T13:39:35.278Z,21.45
2019-04-14T13:42:04.975Z,21.30
2019-04-14T13:44:34.768Z,21.29
2019-04-14T13:47:04.577Z,21.02
2019-04-14T13:49:34.500Z,20.57
2019-04-14T13:52:04.289Z,20.66
2019-04-14T13:54:33.958Z,21.25
2019-04-14T13:57:03.640Z,21.61
2019-04-14T13:59:33.327Z,21.99
2019-04-14T14:02:03.289Z,22.00
2019-04-14T14:04:34.356Z,21.51
2019-04-14T14:07:04.652Z,21.04
2019-04-14T14:09:34.444Z,20.49
2019-04-14T14:12:05.736Z,19.51
2019-04-14T14:14:42.733Z,18.41
2019-04-14T14:17:17.040Z,17.55
2019-04-14T14:19:51.353Z,16.97
2019-04-14T14:22:22.609Z,16.43
2019-04-14T14:24:53.948Z,16.21
2019-04-14T14:27:24.010Z,16.00
2019-04-14T14:29:53.624Z,15.75
2019-04-14T14:32:25.161Z,15.44
2019-04-14T14:34:54.820Z,15.33
2019-04-14T14:37:24.515Z,15.10
2019-04-14T14:39:54.133Z,14.95
2019-04-14T14:42:23.815Z,14.98
2019-04-14T14:45:00.804Z,15.01
2019-04-14T14:47:32.097Z,14.98
2019-04-14T14:50:06.075Z,14.96
2019-04-14T14:52:38.376Z,14.89
2019-04-14T14:55:08.408Z,14.87
2019-04-14T14:57:38.055Z,14.80
2019-04-14T15:00:13.210Z,14.75
2019-04-14T15:02:42.838Z,14.73
2019-04-14T15:05:14.166Z,14.67
2019-04-14T15:07:43.879Z,14.63
2019-04-14T15:10:13.443Z,14.56
2019-04-14T15:12:43.119Z,14.43
2019-04-14T15:15:12.941Z,14.37
2019-04-14T15:17:42.703Z,14.34
2019-04-14T15:20:12.290Z,14.37
2019-04-14T15:22:42.328Z,14.40
2019-04-14T15:25:11.948Z,14.35
2019-04-14T15:27:41.648Z,14.32
2019-04-14T15:30:13.506Z,14.30
2019-04-14T15:32:43.397Z,14.24
2019-04-14T15:35:13.123Z,14.30
2019-04-14T15:37:42.859Z,14.28
2019-04-14T15:40:12.690Z,14.21
2019-04-14T15:42:42.747Z,14.21
2019-04-14T15:45:14.129Z,14.21
2019-04-14T15:47:44.687Z,14.22
2019-04-14T15:50:14.374Z,14.18
2019-04-14T15:52:44.058Z,14.10
2019-04-14T15:55:14.786Z,13.94
2019-04-14T15:57:46.187Z,13.93
2019-04-14T16:00:32.520Z,14.01
2019-04-14T16:03:03.788Z,13.98
2019-04-14T16:05:43.856Z,13.86
2019-04-14T16:08:17.877Z,13.79
2019-04-14T16:10:54.838Z,13.57
2019-04-14T16:13:42.711Z,13.22
2019-04-14T16:16:18.927Z,12.89
2019-04-14T16:18:51.781Z,12.51
2019-04-14T16:21:22.187Z,12.21
2019-04-14T16:23:51.814Z,11.98
2019-04-14T16:26:25.856Z,11.78
2019-04-14T16:28:57.177Z,11.60
2019-04-14T16:31:44.643Z,11.48
2019-04-14T16:34:15.978Z,11.33
2019-04-14T16:36:47.234Z,11.19
2019-04-14T16:39:16.940Z,11.06
2019-04-14T16:41:46.862Z,10.91
2019-04-14T16:44:16.500Z,10.78
2019-04-14T16:46:46.139Z,10.66
2019-04-14T16:49:15.848Z,10.58
2019-04-14T16:51:50.077Z,10.54
2019-04-14T16:54:37.773Z,10.51
2019-04-14T16:57:12.083Z,10.46
2019-04-14T16:59:41.897Z,10.27
2019-04-14T17:02:11.596Z,10.18
2019-04-14T17:04:41.303Z,10.10
2019-04-14T17:07:11.732Z,10.00
2019-04-14T17:09:41.509Z,9.96
2019-04-14T17:12:11.185Z,9.95
2019-04-14T17:14:42.527Z,9.89
2019-04-14T17:17:30.187Z,9.81
2019-04-14T17:20:10.215Z,9.79
2019-04-14T17:22:57.657Z,9.74
2019-04-14T17:25:28.945Z,9.66
2019-04-14T17:28:12.555Z,9.60
2019-04-14T17:30:46.794Z,9.54
2019-04-14T17:33:20.941Z,9.43
2019-04-14T17:36:07.503Z,9.41
2019-04-14T17:38:44.793Z,9.36
2019-04-14T17:41:16.122Z,9.34
2019-04-14T17:43:50.091Z,9.31
2019-04-14T17:46:21.437Z,9.26
2019-04-14T17:49:01.637Z,9.23
2019-04-14T17:51:32.947Z,9.20
2019-04-14T17:54:04.297Z,9.13
2019-04-14T17:56:35.615Z,9.11
2019-04-14T17:59:09.660Z,9.09
2019-04-14T18:01:42.521Z,9.07
2019-04-14T18:04:22.793Z,9.05
2019-04-14T18:06:54.155Z,9.00
2019-04-14T18:09:31.385Z,8.91
2019-04-14T18:12:02.647Z,8.88
2019-04-14T18:14:36.305Z,8.87
2019-04-14T18:17:10.080Z,8.86
2019-04-14T18:19:49.974Z,8.83
2019-04-14T18:22:19.749Z,8.82
2019-04-14T18:24:49.455Z,8.77
2019-04-14T18:27:19.069Z,8.76
2019-04-14T18:29:50.372Z,8.74
2019-04-14T18:32:24.489Z,8.74
2019-04-14T18:35:01.733Z,8.71
2019-04-14T18:37:49.241Z,8.63
2019-04-14T18:40:23.253Z,8.55
2019-04-14T18:43:09.803Z,8.49
2019-04-14T18:45:42.890Z,8.39
2019-04-14T18:48:23.061Z,8.35
2019-04-14T18:51:09.286Z,8.33
2019-04-14T18:53:52.488Z,8.32
2019-04-14T18:56:26.506Z,8.33
2019-04-14T18:59:00.692Z,8.32
2019-04-14T19:01:40.841Z,8.31
2019-04-14T19:04:10.451Z,8.32
2019-04-14T19:06:40.334Z,8.31
2019-04-14T19:09:10.876Z,8.28
2019-04-14T19:11:59.149Z,8.28
2019-04-14T19:14:33.228Z,8.27
2019-04-14T19:17:06.917Z,8.25
2019-04-14T19:19:38.175Z,8.23
2019-04-14T19:22:07.871Z,8.17
2019-04-14T19:24:37.483Z,8.17
2019-04-14T19:27:07.132Z,8.14
2019-04-14T19:29:36.937Z,8.13
2019-04-14T19:32:06.555Z,8.13
2019-04-14T19:34:36.169Z,8.10
2019-04-14T19:37:05.846Z,8.08
2019-04-14T19:39:35.449Z,8.06
2019-04-14T19:42:05.125Z,8.02
2019-04-14T19:44:34.776Z,8.02
2019-04-14T19:47:04.387Z,8.00
2019-04-14T19:49:34.012Z,7.97
2019-04-14T19:52:03.763Z,7.93
2019-04-14T19:54:33.952Z,7.91
2019-04-14T19:57:03.629Z,7.90
2019-04-14T19:59:33.329Z,7.90
2019-04-14T20:02:03.531Z,7.87
2019-04-14T20:04:33.227Z,7.83
2019-04-14T20:07:02.910Z,7.83
2019-04-14T20:09:32.562Z,7.80
2019-04-14T20:12:03.085Z,7.75
2019-04-14T20:14:32.765Z,7.74
2019-04-14T20:17:07.036Z,7.73
2019-04-14T20:19:53.324Z,7.72
2019-04-14T20:22:40.780Z,7.69
2019-04-14T20:25:33.579Z,7.69
2019-04-14T20:28:00.061Z,7.66
2019-04-14T20:30:33.832Z,7.62
2019-04-14T20:33:03.474Z,7.60
2019-04-14T20:35:33.811Z,7.56
2019-04-14T20:38:03.814Z,7.56
2019-04-14T20:40:33.497Z,7.57
2019-04-14T20:43:03.108Z,7.56
2019-04-14T20:45:32.797Z,7.55
2019-04-14T20:48:02.428Z,7.53
2019-04-14T20:50:32.046Z,7.53
2019-04-14T20:53:01.694Z,7.52
2019-04-14T20:55:31.304Z,7.50
2019-04-14T20:58:00.924Z,7.45
2019-04-14T21:00:30.591Z,7.41
2019-04-14T21:03:01.868Z,7.31
2019-04-14T21:05:51.479Z,7.09
2019-04-14T21:08:22.418Z,7.06
2019-04-14T21:10:53.690Z,6.95
2019-04-14T21:13:25.900Z,6.93
2019-04-14T21:16:12.953Z,6.91
2019-04-14T21:18:44.698Z,6.85
2019-04-14T21:21:18.934Z,6.78
2019-04-14T21:24:06.707Z,6.59
2019-04-14T21:26:47.129Z,6.45
2019-04-14T21:29:34.252Z,6.31
2019-04-14T21:32:05.546Z,6.28
2019-04-14T21:34:48.824Z,6.16
2019-04-14T21:37:36.249Z,6.06
2019-04-14T21:40:12.091Z,6.10
2019-04-14T21:42:42.797Z,6.16
2019-04-14T21:45:12.515Z,6.18
2019-04-14T21:47:42.424Z,6.23
2019-04-14T21:50:12.188Z,6.27
2019-04-14T21:52:43.458Z,6.28
2019-04-14T21:55:13.580Z,6.29
2019-04-14T21:57:44.862Z,6.27
2019-04-14T22:00:20.638Z,6.27
2019-04-14T22:03:03.686Z,6.28
2019-04-14T22:05:34.978Z,6.13
2019-04-14T22:08:09.021Z,6.00
2019-04-14T22:10:43.033Z,5.78
2019-04-14T22:13:12.804Z,5.59
2019-04-14T22:15:42.495Z,5.55
2019-04-14T22:18:12.230Z,5.29
2019-04-14T22:20:41.839Z,5.11
2019-04-14T22:23:15.667Z,5.21
2019-04-14T22:25:45.928Z,5.25
2019-04-14T22:28:15.597Z,5.27
2019-04-14T22:30:45.887Z,5.30
2019-04-14T22:33:17.320Z,5.37
2019-04-14T22:35:47.223Z,5.35
2019-04-14T22:38:17.391Z,5.37
2019-04-14T22:40:47.079Z,5.24
2019-04-14T22:43:16.708Z,5.24
2019-04-14T22:45:46.395Z,5.23
2019-04-14T22:48:16.049Z,5.26
2019-04-14T22:50:45.705Z,5.24
2019-04-14T22:53:15.399Z,5.26
2019-04-14T22:55:45.927Z,5.25
2019-04-14T22:58:15.574Z,5.24
2019-04-14T23:00:46.882Z,5.24
2019-04-14T23:03:18.228Z,5.23
2019-04-14T23:05:52.149Z,5.25
2019-04-14T23:08:39.792Z,5.22
2019-04-14T23:11:11.119Z,5.17
2019-04-14T23:13:54.422Z,5.09
2019-04-14T23:16:37.649Z,5.06
2019-04-14T23:19:18.218Z,5.09
2019-04-14T23:21:58.455Z,5.09
2019-04-14T23:24:29.755Z,5.03
2019-04-14T23:26:59.379Z,5.06
2019-04-14T23:29:29.009Z,4.98
2019-04-14T23:31:58.739Z,5.01
2019-04-14T23:34:28.369Z,4.84
2019-04-14T23:36:58.000Z,4.75
2019-04-14T23:39:27.691Z,4.74
2019-04-14T23:41:57.385Z,4.68
2019-04-14T23:44:27.776Z,4.58
2019-04-14T23:46:57.794Z,4.64
2019-04-14T23:49:27.889Z,4.65
2019-04-14T23:51:57.584Z,4.72
2019-04-14T23:54:27.267Z,4.74
2019-04-14T23:57:05.427Z,4.75
2019-04-14T23:59:29.648Z,4.76
